createdAt,value
2022-07-25T00:02:02.154Z,20.41
2022-07-25T00:04:30.369Z,20.35
2022-07-25T00:06:59.521Z,20.36
2022-07-25T00:09:27.157Z,20.26
2022-07-25T00:11:54.798Z,20.25
2022-07-25T00:14:22.390Z,20.18
2022-07-25T00:16:50.040Z,20.12
2022-07-25T00:19:18.328Z,20.08
2022-07-25T00:21:46.223Z,20.06
2022-07-25T00:24:15.317Z,20.07
2022-07-25T00:26:43.200Z,20.00
2022-07-25T00:29:10.976Z,19.97
2022-07-25T00:31:38.734Z,19.89
2022-07-25T00:34:06.860Z,19.98
2022-07-25T00:36:34.945Z,19.91
2022-07-25T00:39:02.648Z,19.88
2022-07-25T00:41:31.800Z,19.87
2022-07-25T00:44:25.144Z,19.90
2022-07-25T00:46:53.296Z,19.78
2022-07-25T00:49:20.941Z,19.74
2022-07-25T00:51:48.841Z,19.73
2022-07-25T00:54:16.603Z,19.73
2022-07-25T00:56:46.205Z,19.69
2022-07-25T00:59:13.900Z,19.65
2022-07-25T01:01:42.675Z,19.57
2022-07-25T01:04:10.353Z,19.51
2022-07-25T01:06:37.952Z,19.51
2022-07-25T01:09:05.540Z,19.51
2022-07-25T01:11:33.076Z,19.52
2022-07-25T01:14:02.097Z,19.51
2022-07-25T01:16:29.889Z,19.42
2022-07-25T01:18:57.560Z,19.47
2022-07-25T01:21:27.028Z,19.44
2022-07-25T01:23:54.757Z,19.34
2022-07-25T01:26:22.581Z,19.33
2022-07-25T01:28:50.226Z,19.31
2022-07-25T01:31:18.553Z,19.28
2022-07-25T01:33:46.157Z,19.30
2022-07-25T01:36:13.757Z,19.38
2022-07-25T01:38:42.722Z,19.23
2022-07-25T01:41:10.338Z,19.26
2022-07-25T01:43:37.953Z,19.11
2022-07-25T01:46:05.828Z,19.08
2022-07-25T01:48:33.874Z,19.03
2022-07-25T01:51:01.565Z,19.02
2022-07-25T01:53:29.229Z,18.92
2022-07-25T01:56:00.348Z,18.96
2022-07-25T01:58:30.583Z,18.95
2022-07-25T02:00:58.649Z,18.93
2022-07-25T02:03:32.567Z,18.89
2022-07-25T02:06:02.306Z,18.87
2022-07-25T02:08:31.005Z,18.83
2022-07-25T02:11:00.950Z,18.80
2022-07-25T02:13:28.853Z,18.77
2022-07-25T02:15:56.461Z,18.70
2022-07-25T02:18:24.089Z,18.71
2022-07-25T02:20:51.676Z,18.69
2022-07-25T02:23:19.244Z,18.64
2022-07-25T02:25:46.818Z,18.67
2022-07-25T02:28:15.756Z,18.67
2022-07-25T02:30:43.415Z,18.62
2022-07-25T02:33:11.029Z,18.57
2022-07-25T02:35:38.610Z,18.57
2022-07-25T02:38:06.296Z,18.52
2022-07-25T02:40:33.971Z,18.43
2022-07-25T02:43:01.688Z,18.42
2022-07-25T02:45:30.593Z,18.41
2022-07-25T02:47:58.200Z,18.38
2022-07-25T02:50:26.001Z,18.36
2022-07-25T02:52:53.674Z,18.43
2022-07-25T02:55:21.461Z,18.34
2022-07-25T02:57:49.141Z,18.29
2022-07-25T03:00:19.493Z,18.40
2022-07-25T03:02:48.404Z,18.19
2022-07-25T03:05:17.990Z,18.18
2022-07-25T03:07:46.283Z,18.12
2022-07-25T03:10:15.112Z,18.01
2022-07-25T03:12:43.783Z,17.95
2022-07-25T03:15:12.905Z,18.00
2022-07-25T03:17:41.147Z,18.02
2022-07-25T03:20:10.907Z,17.93
2022-07-25T03:22:38.770Z,17.84
2022-07-25T03:25:15.938Z,17.81
2022-07-25T03:27:49.413Z,17.77
2022-07-25T03:30:17.376Z,17.76
2022-07-25T03:32:44.938Z,17.68
2022-07-25T03:35:13.871Z,17.63
2022-07-25T03:37:41.510Z,17.62
2022-07-25T03:40:09.985Z,17.68
2022-07-25T03:42:37.612Z,17.69
2022-07-25T03:45:06.173Z,17.65
2022-07-25T03:47:33.849Z,17.67
2022-07-25T03:50:01.449Z,17.64
2022-07-25T03:52:30.565Z,17.60
2022-07-25T03:54:58.207Z,17.57
2022-07-25T03:57:25.809Z,17.54
2022-07-25T03:59:53.416Z,17.50
2022-07-25T04:02:21.436Z,17.56
2022-07-25T04:04:49.149Z,17.57
2022-07-25T04:07:16.786Z,17.62
2022-07-25T04:09:45.905Z,17.70
2022-07-25T04:12:13.576Z,17.81
2022-07-25T04:14:41.246Z,17.81
2022-07-25T04:17:09.086Z,17.88
2022-07-25T04:19:37.286Z,17.89
2022-07-25T04:22:04.920Z,17.87
2022-07-25T04:24:32.509Z,17.97
2022-07-25T04:27:01.881Z,18.03
2022-07-25T04:29:29.655Z,18.01
2022-07-25T04:31:58.141Z,18.10
2022-07-25T04:34:26.218Z,18.09
2022-07-25T04:36:53.807Z,18.18
2022-07-25T04:39:21.421Z,18.31
2022-07-25T04:41:49.461Z,18.33
2022-07-25T04:44:18.483Z,18.37
2022-07-25T04:46:46.047Z,18.48
2022-07-25T04:49:13.920Z,18.47
2022-07-25T04:51:41.513Z,18.63
2022-07-25T04:54:09.900Z,18.75
2022-07-25T04:56:37.981Z,18.86
2022-07-25T04:59:06.485Z,19.00
2022-07-25T05:01:36.159Z,19.09
2022-07-25T05:04:04.324Z,19.28
2022-07-25T05:06:32.677Z,19.38
2022-07-25T05:09:00.353Z,19.34
2022-07-25T05:11:28.025Z,19.33
2022-07-25T05:13:56.358Z,19.46
2022-07-25T05:16:24.026Z,19.46
2022-07-25T05:18:53.005Z,19.54
2022-07-25T05:21:21.133Z,19.69
2022-07-25T05:23:48.751Z,19.96
2022-07-25T05:26:16.395Z,19.93
2022-07-25T05:28:44.252Z,20.28
2022-07-25T05:31:11.946Z,20.39
2022-07-25T05:33:39.654Z,20.63
2022-07-25T05:36:09.484Z,20.91
2022-07-25T05:38:37.165Z,21.10
2022-07-25T05:41:05.142Z,21.48
2022-07-25T05:43:32.817Z,21.96
2022-07-25T05:46:04.787Z,21.94
2022-07-25T05:48:32.885Z,22.22
2022-07-25T05:51:00.775Z,22.66
2022-07-25T05:53:30.873Z,23.14
2022-07-25T05:55:58.476Z,23.60
2022-07-25T05:58:29.628Z,23.69
2022-07-25T06:00:57.903Z,23.92
2022-07-25T06:03:25.622Z,24.29
2022-07-25T06:05:53.316Z,24.59
2022-07-25T06:08:20.884Z,24.56
2022-07-25T06:10:51.492Z,24.43
2022-07-25T06:13:20.749Z,25.22
2022-07-25T06:15:48.559Z,25.42
2022-07-25T06:18:16.410Z,25.63
2022-07-25T06:20:44.013Z,26.05
2022-07-25T06:23:11.585Z,26.34
2022-07-25T06:25:39.215Z,26.32
2022-07-25T06:28:08.887Z,27.14
2022-07-25T06:30:38.257Z,27.31
2022-07-25T06:33:05.865Z,27.76
2022-07-25T06:35:33.624Z,27.45
2022-07-25T06:38:01.383Z,27.27
2022-07-25T06:40:29.465Z,27.79
2022-07-25T06:42:57.078Z,27.92
2022-07-25T06:45:26.181Z,28.50
2022-07-25T06:47:53.956Z,29.26
2022-07-25T06:50:21.705Z,29.38
2022-07-25T06:52:50.267Z,29.53
2022-07-25T06:55:18.209Z,29.48
2022-07-25T06:57:45.799Z,30.02
2022-07-25T07:00:14.615Z,29.88
2022-07-25T07:02:52.100Z,30.27
2022-07-25T07:05:19.963Z,30.49
2022-07-25T07:07:48.323Z,30.32
2022-07-25T07:10:16.650Z,30.64
2022-07-25T07:12:44.260Z,31.23
2022-07-25T07:15:13.598Z,31.15
2022-07-25T07:17:41.307Z,31.10
2022-07-25T07:20:11.857Z,31.27
2022-07-25T07:22:46.725Z,30.73
2022-07-25T07:25:15.683Z,30.91
2022-07-25T07:27:43.743Z,30.69
2022-07-25T07:30:12.265Z,30.73
2022-07-25T07:32:40.173Z,30.58
2022-07-25T07:35:08.300Z,30.53
2022-07-25T07:37:42.970Z,31.12
2022-07-25T07:40:17.822Z,32.01
2022-07-25T07:42:48.340Z,32.10
2022-07-25T07:45:17.953Z,32.36
2022-07-25T07:47:47.918Z,32.40
2022-07-25T07:50:16.617Z,32.40
2022-07-25T07:52:46.428Z,33.00
2022-07-25T07:55:32.297Z,32.87
2022-07-25T07:58:00.616Z,32.79
2022-07-25T08:00:30.971Z,32.92
2022-07-25T08:02:59.839Z,33.10
2022-07-25T08:05:29.055Z,33.00
2022-07-25T08:07:58.477Z,32.78
2022-07-25T08:10:28.696Z,32.71
2022-07-25T08:12:57.464Z,32.75
2022-07-25T08:15:25.952Z,33.38
2022-07-25T08:17:54.902Z,33.50
2022-07-25T08:20:39.712Z,33.65
2022-07-25T08:23:10.985Z,33.21
2022-07-25T08:25:38.968Z,33.73
2022-07-25T08:28:07.365Z,34.43
2022-07-25T08:30:36.166Z,34.95
2022-07-25T08:33:06.751Z,34.71
2022-07-25T08:35:35.296Z,34.90
2022-07-25T08:38:04.606Z,34.59
2022-07-25T08:40:35.428Z,34.58
2022-07-25T08:43:03.205Z,34.27
2022-07-25T08:45:31.573Z,34.19
2022-07-25T08:47:59.241Z,34.43
2022-07-25T08:50:30.480Z,34.34
2022-07-25T08:53:16.601Z,34.59
2022-07-25T08:55:47.745Z,34.92
2022-07-25T08:58:17.533Z,35.40
2022-07-25T09:00:45.304Z,35.60
2022-07-25T09:03:13.583Z,35.68
2022-07-25T09:05:42.220Z,35.34
2022-07-25T09:08:12.005Z,35.61
2022-07-25T09:10:48.977Z,35.73
2022-07-25T09:13:17.600Z,35.76
2022-07-25T09:15:47.621Z,35.76
2022-07-25T09:18:18.881Z,35.30
2022-07-25T09:20:49.371Z,35.08
2022-07-25T09:23:30.023Z,35.71
2022-07-25T09:26:05.307Z,36.38
2022-07-25T09:28:33.433Z,36.76
2022-07-25T09:31:01.920Z,36.74
2022-07-25T09:33:30.274Z,36.63
2022-07-25T09:35:57.725Z,36.77
2022-07-25T09:38:25.722Z,37.51
2022-07-25T09:40:57.187Z,36.23
2022-07-25T09:43:36.189Z,36.56
2022-07-25T09:46:03.718Z,36.17
2022-07-25T09:48:32.104Z,36.44
2022-07-25T09:50:59.700Z,38.00
2022-07-25T09:53:27.699Z,37.98
2022-07-25T09:55:56.975Z,37.05
2022-07-25T09:58:26.662Z,36.75
2022-07-25T10:00:58.515Z,36.58
2022-07-25T10:03:35.701Z,37.24
2022-07-25T10:06:20.262Z,37.38
2022-07-25T10:08:49.423Z,36.95
2022-07-25T10:11:22.239Z,36.70
2022-07-25T10:13:51.315Z,37.61
2022-07-25T10:16:21.791Z,37.24
2022-07-25T10:18:51.944Z,37.67
2022-07-25T10:21:26.973Z,36.69
2022-07-25T10:24:00.030Z,36.61
2022-07-25T10:26:27.719Z,36.17
2022-07-25T10:28:57.097Z,36.46
2022-07-25T10:31:27.877Z,36.71
2022-07-25T10:33:57.579Z,36.61
2022-07-25T10:36:28.697Z,37.05
2022-07-25T10:38:58.938Z,36.90
2022-07-25T10:41:28.273Z,37.42
2022-07-25T10:44:02.291Z,37.41
2022-07-25T10:46:32.517Z,37.54
2022-07-25T10:49:05.699Z,37.34
2022-07-25T10:51:41.962Z,37.60
2022-07-25T10:54:15.614Z,37.27
2022-07-25T10:56:53.981Z,36.98
2022-07-25T10:59:32.121Z,36.97
2022-07-25T11:02:00.080Z,36.23
2022-07-25T11:04:31.494Z,36.24
2022-07-25T11:07:08.175Z,36.16
2022-07-25T11:09:35.795Z,36.03
2022-07-25T11:12:04.067Z,36.01
2022-07-25T11:14:35.288Z,36.72
2022-07-25T11:17:15.583Z,36.73
2022-07-25T11:19:44.060Z,36.47
2022-07-25T11:22:12.291Z,36.55
2022-07-25T11:24:42.906Z,36.00
2022-07-25T11:27:12.746Z,35.78
2022-07-25T11:29:42.143Z,35.35
2022-07-25T11:32:11.709Z,35.29
2022-07-25T11:34:42.403Z,35.28
2022-07-25T11:37:12.231Z,35.57
2022-07-25T11:39:42.053Z,35.48
2022-07-25T11:42:11.288Z,36.19
2022-07-25T11:44:45.633Z,36.26
2022-07-25T11:47:26.105Z,36.41
2022-07-25T11:49:56.032Z,35.95
2022-07-25T11:52:26.133Z,35.66
2022-07-25T11:54:55.419Z,35.95
2022-07-25T11:57:24.176Z,35.28
2022-07-25T11:59:52.074Z,35.14
2022-07-25T12:02:26.597Z,34.58
2022-07-25T12:04:55.813Z,34.30
2022-07-25T12:07:23.526Z,34.50
2022-07-25T12:09:57.952Z,34.93
2022-07-25T12:12:25.626Z,35.54
2022-07-25T12:14:53.340Z,35.58
2022-07-25T12:17:20.971Z,35.46
2022-07-25T12:19:49.920Z,35.63
2022-07-25T12:22:17.547Z,35.46
2022-07-25T12:24:45.221Z,36.06
2022-07-25T12:27:12.897Z,35.77
2022-07-25T12:29:40.510Z,36.18
2022-07-25T12:32:08.355Z,36.74
2022-07-25T12:34:36.016Z,37.03
2022-07-25T12:37:05.248Z,37.62
2022-07-25T12:39:33.613Z,36.79
2022-07-25T12:42:01.230Z,36.66
2022-07-25T12:44:28.945Z,36.25
2022-07-25T12:46:56.682Z,36.13
2022-07-25T12:49:24.401Z,37.17
2022-07-25T12:51:56.201Z,36.94
2022-07-25T12:54:27.100Z,36.61
2022-07-25T12:56:55.344Z,36.72
2022-07-25T12:59:23.659Z,36.75
2022-07-25T13:01:51.451Z,36.38
2022-07-25T13:04:19.283Z,36.29
2022-07-25T13:06:46.929Z,35.85
2022-07-25T13:09:14.689Z,35.84
2022-07-25T13:11:44.051Z,35.88
2022-07-25T13:14:12.656Z,35.82
2022-07-25T13:16:40.480Z,35.39
2022-07-25T13:19:08.821Z,35.15
2022-07-25T13:21:37.330Z,34.74
2022-07-25T13:24:05.798Z,34.81
2022-07-25T13:26:33.628Z,34.42
2022-07-25T13:29:03.632Z,34.60
2022-07-25T13:31:31.850Z,34.58
2022-07-25T13:33:59.596Z,34.26
2022-07-25T13:36:27.254Z,34.11
2022-07-25T13:38:55.007Z,34.13
2022-07-25T13:41:23.149Z,33.90
2022-07-25T13:43:52.162Z,33.78
2022-07-25T13:46:21.427Z,33.57
2022-07-25T13:48:50.353Z,33.91
2022-07-25T13:51:18.057Z,34.25
2022-07-25T13:53:46.135Z,34.41
2022-07-25T13:56:14.094Z,34.32
2022-07-25T13:58:43.177Z,34.43
2022-07-25T14:01:12.730Z,35.00
2022-07-25T14:03:42.139Z,35.71
2022-07-25T14:06:11.255Z,35.76
2022-07-25T14:08:40.675Z,36.21
2022-07-25T14:11:08.971Z,36.29
2022-07-25T14:13:37.083Z,36.36
2022-07-25T14:16:05.189Z,36.41
2022-07-25T14:18:32.874Z,36.32
2022-07-25T14:21:01.975Z,35.25
2022-07-25T14:23:30.242Z,35.58
2022-07-25T14:25:59.246Z,35.81
2022-07-25T14:28:27.127Z,35.60
2022-07-25T14:30:55.341Z,36.29
2022-07-25T14:33:22.984Z,36.17
2022-07-25T14:35:50.904Z,35.81
2022-07-25T14:38:20.097Z,35.81
2022-07-25T14:40:48.089Z,35.30
2022-07-25T14:43:15.760Z,35.29
2022-07-25T14:45:43.545Z,35.90
2022-07-25T14:48:11.455Z,35.82
2022-07-25T14:50:39.412Z,36.20
2022-07-25T14:53:07.496Z,36.54
2022-07-25T14:55:37.895Z,36.75
2022-07-25T14:58:05.824Z,36.62
2022-07-25T15:00:34.208Z,36.58
2022-07-25T15:03:02.564Z,35.83
2022-07-25T15:05:30.261Z,35.18
2022-07-25T15:07:57.957Z,34.88
2022-07-25T15:10:25.535Z,35.01
2022-07-25T15:13:20.585Z,35.52
2022-07-25T15:15:42.508Z,35.51
2022-07-25T15:18:13.824Z,35.43
2022-07-25T15:20:41.945Z,35.11
2022-07-25T15:23:09.739Z,34.69
2022-07-25T15:28:27.906Z,34.79
2022-07-25T15:30:56.465Z,34.86
2022-07-25T15:33:24.298Z,34.51
2022-07-25T15:35:52.665Z,34.89
2022-07-25T15:38:20.981Z,34.65
2022-07-25T15:40:49.028Z,34.78
2022-07-25T15:43:17.778Z,35.06
2022-07-25T15:45:48.269Z,35.13
2022-07-25T15:48:17.225Z,34.76
2022-07-25T15:50:47.625Z,34.26
2022-07-25T15:53:16.316Z,33.92
2022-07-25T15:55:45.323Z,33.96
2022-07-25T15:58:13.862Z,33.94
2022-07-25T16:00:43.225Z,33.76
2022-07-25T16:03:13.730Z,33.26
2022-07-25T16:05:41.622Z,33.04
2022-07-25T16:08:11.124Z,32.62
2022-07-25T16:10:39.759Z,32.57
2022-07-25T16:13:07.737Z,32.69
2022-07-25T16:15:35.745Z,32.32
2022-07-25T16:18:03.870Z,32.28
2022-07-25T16:20:34.050Z,32.11
2022-07-25T16:23:02.425Z,31.87
2022-07-25T16:25:30.864Z,31.80
2022-07-25T16:27:59.487Z,31.91
2022-07-25T16:30:30.048Z,31.65
2022-07-25T16:32:58.045Z,31.38
2022-07-25T16:35:25.949Z,31.59
2022-07-25T16:37:55.024Z,31.34
2022-07-25T16:40:27.366Z,31.20
2022-07-25T16:42:59.171Z,31.20
2022-07-25T16:45:27.752Z,31.34
2022-07-25T16:47:55.485Z,31.50
2022-07-25T16:50:23.381Z,31.02
2022-07-25T16:52:51.046Z,31.08
2022-07-25T16:55:20.212Z,31.04
2022-07-25T16:57:47.794Z,31.13
2022-07-25T17:00:15.676Z,30.96
2022-07-25T17:02:45.111Z,31.00
2022-07-25T17:05:12.741Z,30.72
2022-07-25T17:07:40.736Z,30.69
2022-07-25T17:10:09.442Z,30.66
2022-07-25T17:12:38.551Z,30.52
2022-07-25T17:15:07.669Z,30.63
2022-07-25T17:17:35.464Z,30.82
2022-07-25T17:20:03.108Z,30.62
2022-07-25T17:22:30.760Z,30.49
2022-07-25T17:24:58.459Z,30.19
2022-07-25T17:27:26.969Z,30.08
2022-07-25T17:30:01.181Z,29.95
2022-07-25T17:32:30.100Z,29.91
2022-07-25T17:34:58.275Z,29.98
2022-07-25T17:37:27.709Z,30.09
2022-07-25T17:39:55.761Z,30.20
2022-07-25T17:42:24.176Z,29.77
2022-07-25T17:44:52.490Z,29.38
2022-07-25T17:47:23.224Z,29.26
2022-07-25T17:49:51.092Z,29.19
2022-07-25T17:52:18.873Z,29.15
2022-07-25T17:54:46.611Z,29.06
2022-07-25T17:57:14.438Z,29.10
2022-07-25T17:59:42.190Z,28.94
2022-07-25T18:02:10.074Z,28.85
2022-07-25T18:04:39.383Z,28.83
2022-07-25T18:07:07.612Z,28.82
2022-07-25T18:09:35.387Z,28.66
2022-07-25T18:12:03.102Z,28.64
2022-07-25T18:14:31.398Z,28.53
2022-07-25T18:16:59.036Z,28.53
2022-07-25T18:19:27.106Z,28.52
2022-07-25T18:21:56.264Z,28.50
2022-07-25T18:24:28.937Z,28.54
2022-07-25T18:26:57.417Z,28.52
2022-07-25T18:29:25.247Z,28.47
2022-07-25T18:31:53.216Z,28.22
2022-07-25T18:34:20.953Z,28.24
2022-07-25T18:36:48.835Z,28.33
2022-07-25T18:39:18.080Z,28.26
2022-07-25T18:41:45.953Z,28.00
2022-07-25T18:44:13.877Z,27.98
2022-07-25T18:46:45.520Z,27.87
2022-07-25T18:49:13.557Z,27.81
2022-07-25T18:51:41.339Z,27.74
2022-07-25T18:54:09.333Z,27.80
2022-07-25T18:56:39.111Z,27.73
2022-07-25T18:59:07.782Z,27.64
2022-07-25T19:01:36.969Z,27.42
2022-07-25T19:04:05.835Z,27.30
2022-07-25T19:06:33.995Z,27.31
2022-07-25T19:09:01.710Z,27.31
2022-07-25T19:11:29.672Z,27.20
2022-07-25T19:13:58.671Z,27.08
2022-07-25T19:16:26.559Z,27.01
2022-07-25T19:18:54.386Z,26.89
2022-07-25T19:21:22.137Z,26.92
2022-07-25T19:23:51.182Z,26.79
2022-07-25T19:26:20.063Z,26.60
2022-07-25T19:28:48.194Z,26.52
2022-07-25T19:31:19.943Z,26.58
2022-07-25T19:33:48.054Z,26.48
2022-07-25T19:36:15.845Z,26.51
2022-07-25T19:38:43.934Z,26.42
2022-07-25T19:41:12.139Z,26.27
2022-07-25T19:43:41.981Z,26.34
2022-07-25T19:46:09.772Z,26.29
2022-07-25T19:48:39.014Z,26.17
2022-07-25T19:51:07.061Z,26.22
2022-07-25T19:53:34.947Z,26.15
2022-07-25T19:56:02.813Z,25.98
2022-07-25T19:58:34.171Z,26.10
2022-07-25T20:01:05.986Z,26.03
2022-07-25T20:03:33.921Z,25.97
2022-07-25T20:06:07.858Z,25.88
2022-07-25T20:08:36.342Z,25.92
2022-07-25T20:11:04.148Z,25.97
2022-07-25T20:13:31.904Z,26.01
2022-07-25T20:16:00.188Z,25.98
2022-07-25T20:18:27.933Z,25.89
2022-07-25T20:20:55.643Z,25.85
2022-07-25T20:23:25.454Z,25.85
2022-07-25T20:25:53.410Z,25.75
2022-07-25T20:28:21.129Z,25.77
2022-07-25T20:30:49.092Z,25.86
2022-07-25T20:33:17.369Z,25.89
2022-07-25T20:35:45.165Z,25.68
2022-07-25T20:38:12.835Z,25.71
2022-07-25T20:40:49.264Z,25.62
2022-07-25T20:43:17.596Z,25.51
2022-07-25T20:45:45.415Z,25.42
2022-07-25T20:48:15.216Z,25.43
2022-07-25T20:50:43.157Z,25.46
2022-07-25T20:53:11.518Z,25.36
2022-07-25T20:55:39.575Z,25.61
2022-07-25T20:58:08.640Z,25.34
2022-07-25T21:00:36.526Z,25.39
2022-07-25T21:03:04.302Z,25.37
2022-07-25T21:05:37.540Z,25.33
2022-07-25T21:08:05.399Z,25.33
2022-07-25T21:10:33.132Z,25.15
2022-07-25T21:13:00.771Z,25.26
2022-07-25T21:15:30.765Z,25.20
2022-07-25T21:17:58.535Z,25.19
2022-07-25T21:20:26.556Z,25.00
2022-07-25T21:22:55.455Z,25.03
2022-07-25T21:25:23.202Z,24.91
2022-07-25T21:27:51.074Z,25.03
2022-07-25T21:30:18.792Z,25.00
2022-07-25T21:32:47.867Z,24.92
2022-07-25T21:35:15.478Z,25.24
2022-07-25T21:37:43.187Z,24.99
2022-07-25T21:40:11.582Z,25.24
2022-07-25T21:42:39.327Z,25.03
2022-07-25T21:45:08.211Z,25.07
2022-07-25T21:47:35.929Z,25.26
2022-07-25T21:50:24.852Z,25.13
2022-07-25T21:52:53.625Z,25.09
2022-07-25T21:55:21.905Z,24.92
2022-07-25T21:57:51.261Z,25.06
2022-07-25T22:00:20.223Z,25.17
2022-07-25T22:02:48.327Z,25.09
2022-07-25T22:05:18.844Z,24.80
2022-07-25T22:07:46.903Z,24.89
2022-07-25T22:10:15.763Z,24.92
2022-07-25T22:12:43.527Z,24.86
2022-07-25T22:15:13.170Z,24.96
2022-07-25T22:17:48.346Z,24.80
2022-07-25T22:20:19.182Z,24.68
2022-07-25T22:22:47.567Z,24.94
2022-07-25T22:25:15.344Z,24.74
2022-07-25T22:27:43.029Z,24.72
2022-07-25T22:30:17.974Z,24.62
2022-07-25T22:32:47.080Z,24.68
2022-07-25T22:35:15.267Z,24.61
2022-07-25T22:37:44.280Z,24.69
2022-07-25T22:40:13.207Z,24.57
2022-07-25T22:42:40.839Z,24.54
2022-07-25T22:45:09.484Z,24.65
2022-07-25T22:47:37.084Z,24.70
2022-07-25T22:50:05.780Z,24.79
2022-07-25T22:52:34.893Z,24.79
2022-07-25T22:55:04.132Z,24.70
2022-07-25T22:57:37.074Z,24.68
2022-07-25T23:00:07.365Z,24.75
2022-07-25T23:02:35.097Z,24.56
2022-07-25T23:05:02.847Z,24.73
2022-07-25T23:07:30.469Z,24.62
2022-07-25T23:09:58.173Z,24.81
2022-07-25T23:12:27.146Z,24.79
2022-07-25T23:14:55.003Z,24.86
2022-07-25T23:17:23.059Z,24.65
2022-07-25T23:19:53.264Z,24.61
2022-07-25T23:22:21.920Z,24.71
2022-07-25T23:24:49.717Z,24.50
2022-07-25T23:27:17.526Z,24.44
2022-07-25T23:29:46.473Z,24.17
2022-07-25T23:32:14.082Z,24.22
2022-07-25T23:34:41.757Z,24.12
2022-07-25T23:37:09.598Z,24.25
2022-07-25T23:39:37.471Z,24.15
2022-07-25T23:42:05.494Z,24.23
2022-07-25T23:44:33.132Z,24.14
2022-07-25T23:47:07.098Z,24.28
2022-07-25T23:49:37.995Z,24.03
2022-07-25T23:52:06.594Z,24.02
2022-07-25T23:54:34.873Z,24.09
2022-07-25T23:57:03.412Z,24.18
2022-07-25T23:59:31.158Z,24.10
